sensor_id;sensor_type;location;lat;lon;timestamp;pressure;altitude;pressure_sealevel;temperature;humidity
71791;BME280;59638;52.126;5.434;2023-06-04T00:01:11;102374.59;;;11.68;74.17
71791;BME280;59638;52.126;5.434;2023-06-04T00:03:41;102373.34;;;11.61;75.17
71791;BME280;59638;52.126;5.434;2023-06-04T00:06:08;102373.78;;;11.55;75.40
71791;BME280;59638;52.126;5.434;2023-06-04T00:08:35;102378.44;;;11.52;75.34
71791;BME280;59638;52.126;5.434;2023-06-04T00:11:01;102373.59;;;11.46;75.38
71791;BME280;59638;52.126;5.434;2023-06-04T00:13:28;102380.88;;;11.42;75.72
71791;BME280;59638;52.126;5.434;2023-06-04T00:15:54;102376.75;;;11.38;76.19
71791;BME280;59638;52.126;5.434;2023-06-04T00:18:21;102373.47;;;11.34;76.11
71791;BME280;59638;52.126;5.434;2023-06-04T00:20:47;102377.06;;;11.33;75.53
71791;BME280;59638;52.126;5.434;2023-06-04T00:23:13;102375.50;;;11.31;76.12
71791;BME280;59638;52.126;5.434;2023-06-04T00:25:40;102368.69;;;11.27;75.92
71791;BME280;59638;52.126;5.434;2023-06-04T00:28:06;102376.84;;;11.24;76.49
71791;BME280;59638;52.126;5.434;2023-06-04T00:30:33;102372.94;;;11.16;76.62
71791;BME280;59638;52.126;5.434;2023-06-04T00:33:00;102368.81;;;11.12;77.37
71791;BME280;59638;52.126;5.434;2023-06-04T00:35:27;102369.22;;;11.06;77.01
71791;BME280;59638;52.126;5.434;2023-06-04T00:37:53;102366.78;;;11.03;77.52
71791;BME280;59638;52.126;5.434;2023-06-04T00:40:20;102367.81;;;11.01;77.83
71791;BME280;59638;52.126;5.434;2023-06-04T00:42:46;102366.25;;;10.98;77.80
71791;BME280;59638;52.126;5.434;2023-06-04T00:45:13;102364.75;;;10.94;77.71
71791;BME280;59638;52.126;5.434;2023-06-04T00:47:39;102361.25;;;10.94;77.92
71791;BME280;59638;52.126;5.434;2023-06-04T00:50:07;102371.22;;;10.90;77.98
71791;BME280;59638;52.126;5.434;2023-06-04T00:52:34;102371.22;;;10.90;77.88
71791;BME280;59638;52.126;5.434;2023-06-04T00:55:02;102378.59;;;10.85;78.36
71791;BME280;59638;52.126;5.434;2023-06-04T00:57:28;102367.38;;;10.81;79.07
71791;BME280;59638;52.126;5.434;2023-06-04T00:59:54;102376.47;;;10.77;79.18
71791;BME280;59638;52.126;5.434;2023-06-04T01:02:23;102378.66;;;10.71;79.16
71791;BME280;59638;52.126;5.434;2023-06-04T01:07:27;102369.44;;;10.64;79.57
71791;BME280;59638;52.126;5.434;2023-06-04T01:09:55;102377.44;;;10.62;79.74
71791;BME280;59638;52.126;5.434;2023-06-04T01:12:22;102380.41;;;10.57;79.41
71791;BME280;59638;52.126;5.434;2023-06-04T01:14:48;102375.53;;;10.51;79.51
71791;BME280;59638;52.126;5.434;2023-06-04T01:17:21;102369.41;;;10.51;79.71
71791;BME280;59638;52.126;5.434;2023-06-04T01:20:16;102369.69;;;10.46;79.48
71791;BME280;59638;52.126;5.434;2023-06-04T01:27:58;102377.44;;;10.21;79.98
71791;BME280;59638;52.126;5.434;2023-06-04T01:30:26;102377.09;;;10.13;80.83
71791;BME280;59638;52.126;5.434;2023-06-04T01:32:55;102373.91;;;10.07;80.79
71791;BME280;59638;52.126;5.434;2023-06-04T01:35:22;102381.44;;;9.99;81.37
71791;BME280;59638;52.126;5.434;2023-06-04T01:37:52;102376.66;;;9.92;81.27
71791;BME280;59638;52.126;5.434;2023-06-04T01:40:18;102379.19;;;9.93;80.82
71791;BME280;59638;52.126;5.434;2023-06-04T01:42:45;102374.50;;;9.84;81.21
71791;BME280;59638;52.126;5.434;2023-06-04T01:45:11;102374.88;;;9.78;81.24
71791;BME280;59638;52.126;5.434;2023-06-04T01:47:38;102376.56;;;9.79;81.01
71791;BME280;59638;52.126;5.434;2023-06-04T01:50:05;102381.94;;;9.77;81.17
71791;BME280;59638;52.126;5.434;2023-06-04T01:52:39;102375.06;;;9.75;81.63
71791;BME280;59638;52.126;5.434;2023-06-04T01:55:11;102371.78;;;9.71;81.73
71791;BME280;59638;52.126;5.434;2023-06-04T01:57:39;102375.44;;;9.69;82.37
71791;BME280;59638;52.126;5.434;2023-06-04T02:00:07;102371.94;;;9.68;82.41
71791;BME280;59638;52.126;5.434;2023-06-04T02:02:36;102378.16;;;9.67;82.16
71791;BME280;59638;52.126;5.434;2023-06-04T02:05:04;102369.69;;;9.62;81.73
71791;BME280;59638;52.126;5.434;2023-06-04T02:07:34;102376.19;;;9.57;82.05
71791;BME280;59638;52.126;5.434;2023-06-04T02:10:01;102373.00;;;9.51;82.24
71791;BME280;59638;52.126;5.434;2023-06-04T02:12:28;102380.34;;;9.46;82.87
71791;BME280;59638;52.126;5.434;2023-06-04T02:14:55;102364.50;;;9.46;82.69
71791;BME280;59638;52.126;5.434;2023-06-04T02:17:21;102376.94;;;9.44;82.42
71791;BME280;59638;52.126;5.434;2023-06-04T02:19:47;102373.06;;;9.36;83.26
71791;BME280;59638;52.126;5.434;2023-06-04T02:22:18;102371.38;;;9.35;83.07
71791;BME280;59638;52.126;5.434;2023-06-04T02:24:46;102374.09;;;9.33;83.34
71791;BME280;59638;52.126;5.434;2023-06-04T02:27:12;102375.22;;;9.29;83.84
71791;BME280;59638;52.126;5.434;2023-06-04T02:29:39;102380.69;;;9.26;83.62
71791;BME280;59638;52.126;5.434;2023-06-04T02:32:07;102380.28;;;9.18;84.27
71791;BME280;59638;52.126;5.434;2023-06-04T02:34:34;102378.09;;;9.10;84.64
71791;BME280;59638;52.126;5.434;2023-06-04T02:37:01;102375.56;;;9.09;85.06
71791;BME280;59638;52.126;5.434;2023-06-04T02:39:28;102376.75;;;9.03;84.90
71791;BME280;59638;52.126;5.434;2023-06-04T02:41:54;102369.69;;;9.04;85.32
71791;BME280;59638;52.126;5.434;2023-06-04T02:44:21;102374.22;;;9.02;85.32
71791;BME280;59638;52.126;5.434;2023-06-04T02:46:47;102362.84;;;9.01;85.64
71791;BME280;59638;52.126;5.434;2023-06-04T02:49:14;102376.84;;;9.02;85.82
71791;BME280;59638;52.126;5.434;2023-06-04T02:51:40;102374.41;;;8.98;85.64
71791;BME280;59638;52.126;5.434;2023-06-04T02:54:07;102366.56;;;8.97;86.31
71791;BME280;59638;52.126;5.434;2023-06-04T02:56:34;102362.53;;;8.91;86.84
71791;BME280;59638;52.126;5.434;2023-06-04T02:59:01;102370.69;;;8.87;86.79
71791;BME280;59638;52.126;5.434;2023-06-04T03:01:27;102377.16;;;8.81;86.62
71791;BME280;59638;52.126;5.434;2023-06-04T03:03:54;102381.09;;;8.74;86.93
71791;BME280;59638;52.126;5.434;2023-06-04T03:06:22;102385.59;;;8.72;86.66
71791;BME280;59638;52.126;5.434;2023-06-04T03:08:50;102378.06;;;8.66;86.94
71791;BME280;59638;52.126;5.434;2023-06-04T03:11:17;102375.44;;;8.66;87.72
71791;BME280;59638;52.126;5.434;2023-06-04T03:13:48;102364.13;;;8.64;88.24
71791;BME280;59638;52.126;5.434;2023-06-04T03:16:15;102370.22;;;8.64;88.14
71791;BME280;59638;52.126;5.434;2023-06-04T03:18:42;102367.59;;;8.64;88.36
71791;BME280;59638;52.126;5.434;2023-06-04T03:21:09;102370.41;;;8.61;88.73
71791;BME280;59638;52.126;5.434;2023-06-04T03:23:38;102373.31;;;8.57;88.85
71791;BME280;59638;52.126;5.434;2023-06-04T03:26:04;102378.66;;;8.55;88.90
71791;BME280;59638;52.126;5.434;2023-06-04T03:28:32;102382.13;;;8.56;89.13
71791;BME280;59638;52.126;5.434;2023-06-04T03:30:59;102380.09;;;8.61;89.12
71791;BME280;59638;52.126;5.434;2023-06-04T03:33:26;102378.22;;;8.63;89.04
71791;BME280;59638;52.126;5.434;2023-06-04T03:35:52;102381.78;;;8.62;89.63
71791;BME280;59638;52.126;5.434;2023-06-04T03:38:19;102383.66;;;8.60;89.33
71791;BME280;59638;52.126;5.434;2023-06-04T03:40:46;102374.75;;;8.62;89.49
71791;BME280;59638;52.126;5.434;2023-06-04T03:43:12;102376.72;;;8.59;89.05
71791;BME280;59638;52.126;5.434;2023-06-04T03:45:38;102376.72;;;8.59;89.51
71791;BME280;59638;52.126;5.434;2023-06-04T03:48:05;102379.25;;;8.60;90.06
71791;BME280;59638;52.126;5.434;2023-06-04T03:50:31;102387.06;;;8.62;90.03
71791;BME280;59638;52.126;5.434;2023-06-04T03:52:59;102385.00;;;8.67;89.53
71791;BME280;59638;52.126;5.434;2023-06-04T03:55:26;102376.34;;;8.65;89.77
71791;BME280;59638;52.126;5.434;2023-06-04T03:57:52;102381.25;;;8.71;90.19
71791;BME280;59638;52.126;5.434;2023-06-04T04:00:19;102381.09;;;8.74;89.76
71791;BME280;59638;52.126;5.434;2023-06-04T04:02:47;102382.78;;;8.75;89.94
71791;BME280;59638;52.126;5.434;2023-06-04T04:05:14;102373.28;;;8.73;90.23
71791;BME280;59638;52.126;5.434;2023-06-04T04:07:42;102387.88;;;8.78;90.47
71791;BME280;59638;52.126;5.434;2023-06-04T04:10:09;102376.06;;;8.85;91.05
71791;BME280;59638;52.126;5.434;2023-06-04T04:12:36;102370.16;;;8.96;90.70
71791;BME280;59638;52.126;5.434;2023-06-04T04:15:03;102375.75;;;9.06;90.05
71791;BME280;59638;52.126;5.434;2023-06-04T04:17:30;102371.91;;;9.11;90.32
71791;BME280;59638;52.126;5.434;2023-06-04T04:19:57;102382.94;;;9.18;90.28
71791;BME280;59638;52.126;5.434;2023-06-04T04:22:23;102385.16;;;9.24;90.67
71791;BME280;59638;52.126;5.434;2023-06-04T04:24:51;102384.16;;;9.26;90.15
71791;BME280;59638;52.126;5.434;2023-06-04T04:27:17;102388.22;;;9.32;89.73
71791;BME280;59638;52.126;5.434;2023-06-04T04:29:43;102377.31;;;9.38;89.46
71791;BME280;59638;52.126;5.434;2023-06-04T04:32:10;102380.34;;;9.46;89.63
71791;BME280;59638;52.126;5.434;2023-06-04T04:34:38;102381.06;;;9.48;90.04
71791;BME280;59638;52.126;5.434;2023-06-04T04:37:09;102386.56;;;9.60;90.41
71791;BME280;59638;52.126;5.434;2023-06-04T04:39:35;102384.13;;;9.71;89.84
71791;BME280;59638;52.126;5.434;2023-06-04T04:42:03;102374.88;;;9.78;89.75
71791;BME280;59638;52.126;5.434;2023-06-04T04:44:29;102384.66;;;9.90;89.52
71791;BME280;59638;52.126;5.434;2023-06-04T04:46:55;102373.72;;;10.11;89.59
71791;BME280;59638;52.126;5.434;2023-06-04T04:49:22;102374.44;;;11.46;88.81
71791;BME280;59638;52.126;5.434;2023-06-04T04:51:48;102365.91;;;13.58;82.12
71791;BME280;59638;52.126;5.434;2023-06-04T04:54:15;102368.19;;;15.45;72.69
71791;BME280;59638;52.126;5.434;2023-06-04T04:56:41;102366.69;;;15.73;68.45
71791;BME280;59638;52.126;5.434;2023-06-04T04:59:08;102371.47;;;14.54;69.81
71791;BME280;59638;52.126;5.434;2023-06-04T05:01:34;102372.81;;;13.14;72.49
71791;BME280;59638;52.126;5.434;2023-06-04T05:04:01;102385.97;;;12.20;75.98
71791;BME280;59638;52.126;5.434;2023-06-04T05:06:29;102382.53;;;11.68;79.03
71791;BME280;59638;52.126;5.434;2023-06-04T05:08:55;102385.00;;;11.71;80.22
71791;BME280;59638;52.126;5.434;2023-06-04T05:11:22;102380.78;;;11.56;80.96
71791;BME280;59638;52.126;5.434;2023-06-04T05:13:48;102392.19;;;11.44;81.66
71791;BME280;59638;52.126;5.434;2023-06-04T05:16:15;102395.13;;;11.27;82.38
71791;BME280;59638;52.126;5.434;2023-06-04T05:18:41;102392.19;;;11.19;83.91
71791;BME280;59638;52.126;5.434;2023-06-04T05:21:10;102390.69;;;11.14;84.05
71791;BME280;59638;52.126;5.434;2023-06-04T05:23:38;102387.53;;;11.09;83.88
71791;BME280;59638;52.126;5.434;2023-06-04T05:26:05;102389.00;;;11.13;85.39
71791;BME280;59638;52.126;5.434;2023-06-04T05:28:32;102383.50;;;11.16;85.05
71791;BME280;59638;52.126;5.434;2023-06-04T05:31:01;102388.81;;;11.29;85.67
71791;BME280;59638;52.126;5.434;2023-06-04T05:33:30;102390.09;;;11.36;84.92
71791;BME280;59638;52.126;5.434;2023-06-04T05:35:57;102383.31;;;11.45;85.24
71791;BME280;59638;52.126;5.434;2023-06-04T05:38:25;102387.00;;;11.55;85.30
71791;BME280;59638;52.126;5.434;2023-06-04T05:40:57;102389.03;;;11.64;84.75
71791;BME280;59638;52.126;5.434;2023-06-04T05:43:23;102394.41;;;11.76;83.69
71791;BME280;59638;52.126;5.434;2023-06-04T05:45:50;102389.66;;;11.81;84.33
71791;BME280;59638;52.126;5.434;2023-06-04T05:48:18;102386.47;;;11.88;83.01
71791;BME280;59638;52.126;5.434;2023-06-04T05:50:44;102387.97;;;11.92;83.37
71791;BME280;59638;52.126;5.434;2023-06-04T05:53:11;102389.41;;;12.09;82.95
71791;BME280;59638;52.126;5.434;2023-06-04T05:55:37;102386.50;;;12.25;83.39
71791;BME280;59638;52.126;5.434;2023-06-04T05:58:06;102388.47;;;12.34;82.26
71791;BME280;59638;52.126;5.434;2023-06-04T06:00:32;102380.84;;;12.42;82.54
71791;BME280;59638;52.126;5.434;2023-06-04T06:03:00;102394.44;;;12.62;81.87
71791;BME280;59638;52.126;5.434;2023-06-04T06:05:28;102389.78;;;12.76;80.51
71791;BME280;59638;52.126;5.434;2023-06-04T06:07:54;102394.78;;;12.92;80.40
71791;BME280;59638;52.126;5.434;2023-06-04T06:10:22;102390.94;;;12.96;80.09
71791;BME280;59638;52.126;5.434;2023-06-04T06:12:48;102388.94;;;13.11;79.03
71791;BME280;59638;52.126;5.434;2023-06-04T06:15:15;102391.66;;;13.22;78.45
71791;BME280;59638;52.126;5.434;2023-06-04T06:17:41;102390.94;;;13.31;77.69
71791;BME280;59638;52.126;5.434;2023-06-04T06:20:08;102394.47;;;13.43;76.51
71791;BME280;59638;52.126;5.434;2023-06-04T06:22:35;102393.91;;;13.62;76.88
71791;BME280;59638;52.126;5.434;2023-06-04T06:25:02;102391.47;;;13.70;75.52
71791;BME280;59638;52.126;5.434;2023-06-04T06:27:29;102395.13;;;13.80;75.47
71791;BME280;59638;52.126;5.434;2023-06-04T06:29:56;102393.75;;;13.97;75.60
71791;BME280;59638;52.126;5.434;2023-06-04T06:32:23;102397.75;;;14.03;75.26
71791;BME280;59638;52.126;5.434;2023-06-04T06:34:49;102394.81;;;14.17;74.69
71791;BME280;59638;52.126;5.434;2023-06-04T06:37:16;102387.19;;;14.35;73.26
71791;BME280;59638;52.126;5.434;2023-06-04T06:39:42;102396.22;;;14.43;71.16
71791;BME280;59638;52.126;5.434;2023-06-04T06:42:08;102382.94;;;14.55;72.83
71791;BME280;59638;52.126;5.434;2023-06-04T06:44:35;102391.13;;;14.63;72.70
71791;BME280;59638;52.126;5.434;2023-06-04T06:47:01;102380.59;;;14.73;72.14
71791;BME280;59638;52.126;5.434;2023-06-04T06:49:28;102393.63;;;14.96;71.61
71791;BME280;59638;52.126;5.434;2023-06-04T06:51:54;102391.13;;;15.16;71.03
71791;BME280;59638;52.126;5.434;2023-06-04T06:54:21;102390.31;;;15.25;70.17
71791;BME280;59638;52.126;5.434;2023-06-04T06:56:48;102401.22;;;15.43;69.48
71791;BME280;59638;52.126;5.434;2023-06-04T06:59:16;102401.38;;;15.62;68.66
71791;BME280;59638;52.126;5.434;2023-06-04T07:01:43;102399.16;;;16.08;69.08
71791;BME280;59638;52.126;5.434;2023-06-04T07:04:09;102411.16;;;16.33;67.23
71791;BME280;59638;52.126;5.434;2023-06-04T07:06:36;102403.06;;;16.53;64.04
71791;BME280;59638;52.126;5.434;2023-06-04T07:09:02;102402.41;;;16.71;65.41
71791;BME280;59638;52.126;5.434;2023-06-04T07:11:31;102403.09;;;17.02;63.90
71791;BME280;59638;52.126;5.434;2023-06-04T07:13:58;102404.75;;;17.22;64.97
71791;BME280;59638;52.126;5.434;2023-06-04T07:16:24;102400.94;;;17.34;64.37
71791;BME280;59638;52.126;5.434;2023-06-04T07:18:51;102404.69;;;17.51;64.60
71791;BME280;59638;52.126;5.434;2023-06-04T07:21:17;102403.59;;;17.44;62.56
71791;BME280;59638;52.126;5.434;2023-06-04T07:23:46;102414.75;;;17.67;61.06
71791;BME280;59638;52.126;5.434;2023-06-04T07:26:16;102414.38;;;18.27;61.17
71791;BME280;59638;52.126;5.434;2023-06-04T07:28:44;102420.44;;;19.88;59.05
71791;BME280;59638;52.126;5.434;2023-06-04T07:31:10;102408.28;;;20.92;56.74
71791;BME280;59638;52.126;5.434;2023-06-04T07:33:37;102406.91;;;22.01;52.38
71791;BME280;59638;52.126;5.434;2023-06-04T07:36:12;102413.13;;;22.64;51.66
71791;BME280;59638;52.126;5.434;2023-06-04T07:38:38;102410.09;;;22.90;50.79
71791;BME280;59638;52.126;5.434;2023-06-04T07:41:05;102409.19;;;22.74;48.41
71791;BME280;59638;52.126;5.434;2023-06-04T07:43:36;102410.88;;;22.98;49.65
71791;BME280;59638;52.126;5.434;2023-06-04T07:46:03;102410.00;;;23.21;48.10
71791;BME280;59638;52.126;5.434;2023-06-04T07:48:30;102412.44;;;23.45;48.73
71791;BME280;59638;52.126;5.434;2023-06-04T07:51:01;102415.56;;;24.23;45.07
71791;BME280;59638;52.126;5.434;2023-06-04T07:53:28;102406.53;;;24.66;44.33
71791;BME280;59638;52.126;5.434;2023-06-04T07:55:55;102413.34;;;25.05;42.64
71791;BME280;59638;52.126;5.434;2023-06-04T07:58:22;102415.47;;;24.46;43.93
71791;BME280;59638;52.126;5.434;2023-06-04T08:00:48;102411.00;;;24.23;43.96
71791;BME280;59638;52.126;5.434;2023-06-04T08:03:15;102407.38;;;24.31;42.78
71791;BME280;59638;52.126;5.434;2023-06-04T08:05:42;102404.94;;;24.36;40.77
71791;BME280;59638;52.126;5.434;2023-06-04T08:08:08;102408.78;;;24.84;39.84
71791;BME280;59638;52.126;5.434;2023-06-04T08:10:34;102411.78;;;24.53;43.18
71791;BME280;59638;52.126;5.434;2023-06-04T08:13:01;102407.88;;;24.56;39.95
71791;BME280;59638;52.126;5.434;2023-06-04T08:15:27;102409.09;;;25.17;40.05
71791;BME280;59638;52.126;5.434;2023-06-04T08:17:54;102397.50;;;25.58;39.90
71791;BME280;59638;52.126;5.434;2023-06-04T08:20:21;102402.56;;;26.16;37.24
71791;BME280;59638;52.126;5.434;2023-06-04T08:22:47;102406.88;;;25.62;39.30
71791;BME280;59638;52.126;5.434;2023-06-04T08:25:14;102407.69;;;25.56;40.56
71791;BME280;59638;52.126;5.434;2023-06-04T08:27:41;102401.75;;;26.15;36.25
71791;BME280;59638;52.126;5.434;2023-06-04T08:30:08;102403.09;;;26.59;35.71
71791;BME280;59638;52.126;5.434;2023-06-04T08:32:35;102408.13;;;26.62;36.79
71791;BME280;59638;52.126;5.434;2023-06-04T08:35:01;102405.84;;;26.72;35.22
71791;BME280;59638;52.126;5.434;2023-06-04T08:37:28;102408.03;;;26.29;35.86
71791;BME280;59638;52.126;5.434;2023-06-04T08:39:55;102401.41;;;26.45;36.80
71791;BME280;59638;52.126;5.434;2023-06-04T08:44:51;102401.91;;;26.07;36.89
71791;BME280;59638;52.126;5.434;2023-06-04T08:47:24;102407.78;;;26.17;38.58
71791;BME280;59638;52.126;5.434;2023-06-04T08:49:52;102399.78;;;26.57;35.04
71791;BME280;59638;52.126;5.434;2023-06-04T08:52:20;102409.44;;;26.18;37.95
71791;BME280;59638;52.126;5.434;2023-06-04T08:54:49;102404.59;;;26.68;37.55
71791;BME280;59638;52.126;5.434;2023-06-04T08:57:19;102411.28;;;26.11;38.28
71791;BME280;59638;52.126;5.434;2023-06-04T08:59:47;102412.97;;;26.12;38.33
71791;BME280;59638;52.126;5.434;2023-06-04T09:02:14;102414.56;;;26.00;35.91
71791;BME280;59638;52.126;5.434;2023-06-04T09:04:42;102414.91;;;26.38;37.86
71791;BME280;59638;52.126;5.434;2023-06-04T09:07:10;102415.22;;;26.76;39.25
71791;BME280;59638;52.126;5.434;2023-06-04T09:09:39;102413.94;;;27.52;35.50
71791;BME280;59638;52.126;5.434;2023-06-04T09:12:10;102419.13;;;27.67;34.36
71791;BME280;59638;52.126;5.434;2023-06-04T09:14:37;102414.00;;;27.05;35.15
71791;BME280;59638;52.126;5.434;2023-06-04T09:17:04;102413.38;;;27.10;34.18
71791;BME280;59638;52.126;5.434;2023-06-04T09:19:30;102407.72;;;26.98;35.46
71791;BME280;59638;52.126;5.434;2023-06-04T09:21:58;102408.88;;;26.29;36.74
71791;BME280;59638;52.126;5.434;2023-06-04T09:24:38;102407.47;;;26.60;35.65
71791;BME280;59638;52.126;5.434;2023-06-04T09:27:10;102406.84;;;26.45;36.30
71791;BME280;59638;52.126;5.434;2023-06-04T09:29:38;102404.56;;;25.94;37.05
71791;BME280;59638;52.126;5.434;2023-06-04T09:32:05;102409.03;;;26.15;33.54
71791;BME280;59638;52.126;5.434;2023-06-04T09:34:31;102402.28;;;26.59;35.18
71791;BME280;59638;52.126;5.434;2023-06-04T09:36:58;102403.16;;;27.12;35.98
71791;BME280;59638;52.126;5.434;2023-06-04T09:39:25;102411.00;;;26.54;37.29
71791;BME280;59638;52.126;5.434;2023-06-04T09:42:01;102405.66;;;27.07;35.19
71791;BME280;59638;52.126;5.434;2023-06-04T09:44:31;102403.16;;;27.25;36.70
71791;BME280;59638;52.126;5.434;2023-06-04T09:47:08;102400.13;;;27.86;33.71
71791;BME280;59638;52.126;5.434;2023-06-04T09:49:45;102399.69;;;28.34;32.75
71791;BME280;59638;52.126;5.434;2023-06-04T09:52:13;102396.69;;;27.98;32.69
71791;BME280;59638;52.126;5.434;2023-06-04T09:54:40;102400.97;;;27.67;31.70
71791;BME280;59638;52.126;5.434;2023-06-04T09:57:15;102402.50;;;27.03;34.38
71791;BME280;59638;52.126;5.434;2023-06-04T09:59:48;102400.00;;;27.48;34.68
71791;BME280;59638;52.126;5.434;2023-06-04T10:02:20;102403.78;;;27.99;35.11
71791;BME280;59638;52.126;5.434;2023-06-04T10:04:55;102395.34;;;27.62;32.54
71791;BME280;59638;52.126;5.434;2023-06-04T10:07:24;102416.53;;;26.26;39.35
71791;BME280;59638;52.126;5.434;2023-06-04T10:09:55;102401.91;;;27.34;36.94
71791;BME280;59638;52.126;5.434;2023-06-04T10:12:31;102401.66;;;28.14;32.46
71791;BME280;59638;52.126;5.434;2023-06-04T10:15:13;102398.81;;;27.96;34.00
71791;BME280;59638;52.126;5.434;2023-06-04T10:17:40;102405.03;;;28.03;33.11
71791;BME280;59638;52.126;5.434;2023-06-04T10:20:07;102400.06;;;28.00;31.15
71791;BME280;59638;52.126;5.434;2023-06-04T10:22:35;102395.25;;;27.95;30.79
71791;BME280;59638;52.126;5.434;2023-06-04T10:25:02;102399.91;;;27.81;34.47
71791;BME280;59638;52.126;5.434;2023-06-04T10:27:32;102397.31;;;28.44;32.61
71791;BME280;59638;52.126;5.434;2023-06-04T10:30:02;102395.03;;;28.73;32.84
71791;BME280;59638;52.126;5.434;2023-06-04T10:32:31;102394.25;;;28.66;32.71
71791;BME280;59638;52.126;5.434;2023-06-04T10:34:58;102388.75;;;28.03;34.02
71791;BME280;59638;52.126;5.434;2023-06-04T10:37:26;102394.06;;;28.23;32.83
71791;BME280;59638;52.126;5.434;2023-06-04T10:39:56;102391.78;;;28.26;33.26
71791;BME280;59638;52.126;5.434;2023-06-04T10:42:24;102396.69;;;28.74;32.97
71791;BME280;59638;52.126;5.434;2023-06-04T10:44:52;102388.31;;;29.44;32.41
71791;BME280;59638;52.126;5.434;2023-06-04T10:47:24;102387.63;;;29.48;30.72
71791;BME280;59638;52.126;5.434;2023-06-04T10:49:53;102385.22;;;29.40;31.49
71791;BME280;59638;52.126;5.434;2023-06-04T10:52:21;102376.84;;;29.42;31.11
71791;BME280;59638;52.126;5.434;2023-06-04T10:54:48;102384.03;;;29.73;29.41
71791;BME280;59638;52.126;5.434;2023-06-04T10:57:18;102380.53;;;29.47;30.47
71791;BME280;59638;52.126;5.434;2023-06-04T10:59:55;102390.59;;;29.47;33.24
71791;BME280;59638;52.126;5.434;2023-06-04T11:02:21;102388.69;;;29.84;30.24
71791;BME280;59638;52.126;5.434;2023-06-04T11:04:59;102386.59;;;29.86;31.28
71791;BME280;59638;52.126;5.434;2023-06-04T11:07:27;102386.84;;;29.85;31.41
71791;BME280;59638;52.126;5.434;2023-06-04T11:09:55;102394.84;;;29.79;32.44
71791;BME280;59638;52.126;5.434;2023-06-04T11:12:21;102394.19;;;29.22;31.37
71791;BME280;59638;52.126;5.434;2023-06-04T11:14:57;102380.91;;;29.33;30.46
71791;BME280;59638;52.126;5.434;2023-06-04T11:17:24;102372.50;;;28.66;31.46
71791;BME280;59638;52.126;5.434;2023-06-04T11:19:51;102376.56;;;29.25;30.49
71791;BME280;59638;52.126;5.434;2023-06-04T11:22:21;102367.09;;;29.34;29.61
71791;BME280;59638;52.126;5.434;2023-06-04T11:24:48;102375.53;;;28.51;31.36
71791;BME280;59638;52.126;5.434;2023-06-04T11:27:15;102375.56;;;28.76;33.86
71791;BME280;59638;52.126;5.434;2023-06-04T11:30:01;102368.41;;;29.07;34.39
71791;BME280;59638;52.126;5.434;2023-06-04T11:32:28;102365.41;;;29.88;28.27
71791;BME280;59638;52.126;5.434;2023-06-04T11:35:04;102365.81;;;30.22;29.89
71791;BME280;59638;52.126;5.434;2023-06-04T11:37:32;102355.66;;;30.29;29.11
71791;BME280;59638;52.126;5.434;2023-06-04T11:40:00;102361.81;;;30.36;28.82
71791;BME280;59638;52.126;5.434;2023-06-04T11:42:32;102360.25;;;29.98;30.13
71791;BME280;59638;52.126;5.434;2023-06-04T11:44:58;102367.22;;;30.13;30.27
71791;BME280;59638;52.126;5.434;2023-06-04T11:47:25;102359.47;;;30.40;27.93
71791;BME280;59638;52.126;5.434;2023-06-04T11:49:55;102355.91;;;29.79;28.57
71791;BME280;59638;52.126;5.434;2023-06-04T11:52:23;102365.41;;;29.88;29.82
71791;BME280;59638;52.126;5.434;2023-06-04T11:54:49;102363.84;;;29.81;30.83
71791;BME280;59638;52.126;5.434;2023-06-04T11:57:16;102356.09;;;30.14;32.03
71791;BME280;59638;52.126;5.434;2023-06-04T11:59:43;102355.34;;;30.49;30.22
71791;BME280;59638;52.126;5.434;2023-06-04T12:02:10;102345.63;;;30.41;28.71
71791;BME280;59638;52.126;5.434;2023-06-04T12:04:36;102341.31;;;30.87;28.40
71791;BME280;59638;52.126;5.434;2023-06-04T12:07:03;102346.03;;;29.96;29.39
71791;BME280;59638;52.126;5.434;2023-06-04T12:09:32;102342.97;;;29.74;30.51
71791;BME280;59638;52.126;5.434;2023-06-04T12:12:04;102340.22;;;30.11;31.72
71791;BME280;59638;52.126;5.434;2023-06-04T12:14:31;102334.13;;;30.63;27.86
71791;BME280;59638;52.126;5.434;2023-06-04T12:17:00;102334.72;;;30.41;30.19
71791;BME280;59638;52.126;5.434;2023-06-04T12:19:27;102334.13;;;30.39;29.04
71791;BME280;59638;52.126;5.434;2023-06-04T12:22:01;102334.91;;;30.93;27.97
71791;BME280;59638;52.126;5.434;2023-06-04T12:24:29;102332.41;;;30.80;26.15
71791;BME280;59638;52.126;5.434;2023-06-04T12:27:22;102342.47;;;30.68;29.30
71791;BME280;59638;52.126;5.434;2023-06-04T12:30:03;102333.97;;;29.92;29.63
71791;BME280;59638;52.126;5.434;2023-06-04T12:32:30;102338.13;;;30.25;30.28
71791;BME280;59638;52.126;5.434;2023-06-04T12:34:59;102330.56;;;30.39;29.93
71791;BME280;59638;52.126;5.434;2023-06-04T12:37:25;102332.66;;;29.95;30.85
71791;BME280;59638;52.126;5.434;2023-06-04T12:39:53;102340.88;;;30.06;29.80
71791;BME280;59638;52.126;5.434;2023-06-04T12:42:19;102334.84;;;30.04;29.85
71791;BME280;59638;52.126;5.434;2023-06-04T12:44:46;102337.91;;;29.41;31.22
71791;BME280;59638;52.126;5.434;2023-06-04T12:47:13;102343.72;;;27.88;33.40
71791;BME280;59638;52.126;5.434;2023-06-04T12:49:39;102339.31;;;27.29;31.58
71791;BME280;59638;52.126;5.434;2023-06-04T12:52:06;102341.81;;;26.32;33.09
71791;BME280;59638;52.126;5.434;2023-06-04T12:54:32;102332.34;;;25.53;35.38
71791;BME280;59638;52.126;5.434;2023-06-04T12:56:59;102341.03;;;25.42;37.01
71791;BME280;59638;52.126;5.434;2023-06-04T12:59:26;102341.78;;;25.23;36.10
71791;BME280;59638;52.126;5.434;2023-06-04T13:01:54;102336.06;;;24.83;37.70
71791;BME280;59638;52.126;5.434;2023-06-04T13:04:21;102333.34;;;24.61;37.84
71791;BME280;59638;52.126;5.434;2023-06-04T13:06:49;102338.50;;;24.35;38.98